Time;durP1;ratioP1;P1;durP2;ratioP2;P2;SDS_P1;SDS_P2;PMS_P1;PMS_P2;Temp;Humidity;BMP_temperature;BMP_pressure;BME280_temperature;BME280_humidity;BME280_pressure;Samples;Min_cycle;Max_cycle;Signal;HPM_P1;HPM_P2
2022/01/14 07:59:02;;;;;;;40.78;17.25;;;;;;;1.62;97.00;103488.47;5315956;27;20405;-69
2022/01/14 08:01:36;;;;;;;39.45;16.50;;;;;;;1.66;97.62;103495.34;5296206;28;20044;-69
2022/01/14 08:04:07;;;;;;;59.78;17.48;;;;;;;1.56;97.34;103486.41;5287918;28;20016;-69
2022/01/14 08:06:45;;;;;;;25.35;15.90;;;;;;;1.67;97.39;103486.09;5290448;28;20025;-70
2022/01/14 08:09:18;;;;;;;37.35;16.65;;;;;;;1.70;97.07;103495.84;5295441;28;20036;-70
2022/01/14 08:11:50;;;;;;;28.15;16.23;;;;;;;1.70;97.31;103496.69;5299578;28;20036;-70
2022/01/14 08:14:21;;;;;;;36.67;16.33;;;;;;;1.75;97.31;103493.47;5293389;28;20024;-70
2022/01/14 08:16:52;;;;;;;26.30;15.55;;;;;;;1.83;97.14;103506.31;5293146;28;20384;-69
2022/01/14 08:19:24;;;;;;;29.80;16.00;;;;;;;1.86;96.58;103505.97;5300156;28;20021;-71
2022/01/14 08:21:55;;;;;;;49.83;17.27;;;;;;;1.87;96.62;103494.03;5283613;28;20026;-70
2022/01/14 08:24:26;;;;;;;41.50;15.95;;;;;;;1.91;96.99;103492.66;5291763;28;20028;-70
2022/01/14 08:26:58;;;;;;;27.48;16.63;;;;;;;2.01;97.14;103479.66;5291673;28;20028;-69
2022/01/14 08:29:30;;;;;;;25.98;16.15;;;;;;;2.01;96.17;103479.66;5300451;28;20099;-69
2022/01/14 08:32:02;;;;;;;33.08;15.00;;;;;;;2.01;96.95;103482.41;5299414;28;20379;-69
2022/01/14 08:34:33;;;;;;;27.00;15.57;;;;;;;2.06;96.50;103490.13;5300268;28;20389;-69
2022/01/14 08:37:05;;;;;;;32.30;16.48;;;;;;;2.07;96.33;103470.81;5297032;28;20035;-72
2022/01/14 08:39:39;;;;;;;20.20;15.13;;;;;;;2.10;95.73;103472.34;5283003;28;20017;-71
2022/01/14 08:42:12;;;;;;;30.33;15.38;;;;;;;2.12;95.84;103473.88;5297881;28;20017;-70
2022/01/14 08:44:45;;;;;;;24.00;15.48;;;;;;;2.09;95.91;103474.19;5296927;28;20024;-69
2022/01/14 08:47:17;;;;;;;37.15;16.05;;;;;;;1.90;96.29;103501.91;5283400;28;20388;-69
2022/01/14 08:49:48;;;;;;;32.08;18.20;;;;;;;1.73;96.84;103506.44;5298734;28;20024;-69
2022/01/14 08:52:20;;;;;;;26.38;15.52;;;;;;;1.74;97.60;103508.19;5299856;28;20060;-69
2022/01/14 08:54:51;;;;;;;40.13;16.83;;;;;;;1.50;99.07;103511.66;5287217;28;20476;-69
2022/01/14 08:57:23;;;;;;;22.98;16.92;;;;;;;1.73;98.97;103503.72;5302978;28;20058;-71
2022/01/14 08:59:54;;;;;;;24.02;18.27;;;;;;;1.86;98.88;103484.09;5303765;28;20101;-71
2022/01/14 09:02:28;;;;;;;24.70;15.93;;;;;;;1.92;98.47;103487.03;5320515;28;20034;-72
2022/01/14 09:04:59;;;;;;;40.35;17.80;;;;;;;1.96;98.52;103479.31;5320902;28;20055;-72
2022/01/14 09:07:31;;;;;;;24.05;18.30;;;;;;;2.11;98.10;103480.38;5311365;28;20067;-72
2022/01/14 09:10:03;;;;;;;24.42;18.00;;;;;;;2.17;97.73;103487.94;5307179;28;20028;-70
2022/01/14 09:12:35;;;;;;;25.45;18.08;;;;;;;2.23;97.32;103491.84;5296463;28;20074;-70
2022/01/14 09:15:08;;;;;;;23.70;17.35;;;;;;;2.29;98.20;103487.59;5299215;28;20467;-70
2022/01/14 09:17:40;;;;;;;34.67;17.45;;;;;;;2.17;97.51;103498.88;5292729;28;20032;-70
2022/01/14 09:20:15;;;;;;;29.50;17.40;;;;;;;2.36;97.27;103497.69;5306523;28;20020;-70
2022/01/14 09:22:51;;;;;;;62.35;19.20;;;;;;;2.22;96.51;103494.75;5301718;28;20024;-71
2022/01/14 09:25:23;;;;;;;21.13;16.80;;;;;;;2.43;96.69;103491.50;5305753;28;20024;-70
2022/01/14 09:27:55;;;;;;;24.67;16.50;;;;;;;2.53;96.95;103498.56;5289042;28;20374;-70
2022/01/14 09:30:28;;;;;;;22.15;16.55;;;;;;;2.59;96.87;103484.16;5305527;28;20019;-72
2022/01/14 09:32:59;;;;;;;21.27;17.80;;;;;;;2.53;96.18;103498.56;5292684;28;20093;-71
2022/01/14 09:35:31;;;;;;;28.52;18.02;;;;;;;2.55;96.49;103501.97;5303338;28;20020;-70
2022/01/14 09:38:02;;;;;;;24.58;16.83;;;;;;;2.57;96.57;103502.66;5300658;28;20045;-70
2022/01/14 09:40:35;;;;;;;28.73;18.95;;;;;;;2.69;96.14;103497.69;5299328;28;20371;-70
2022/01/14 09:43:06;;;;;;;20.98;15.55;;;;;;;2.71;96.38;103495.63;5305024;28;20433;-70
2022/01/14 09:45:38;;;;;;;29.42;17.95;;;;;;;2.58;95.33;103490.69;5303752;28;20016;-70
2022/01/14 09:48:13;;;;;;;28.75;18.52;;;;;;;2.68;96.50;103500.59;5298270;28;20059;-70
2022/01/14 09:50:45;;;;;;;41.72;17.52;;;;;;;2.61;96.21;103495.81;5305467;28;20027;-70
2022/01/14 09:53:16;;;;;;;21.27;15.25;;;;;;;3.04;98.98;103507.41;5292609;28;20020;-79
2022/01/14 09:55:48;;;;;;;25.48;17.13;;;;;;;2.79;98.16;103509.31;5305925;28;20471;-74
2022/01/14 09:58:22;;;;;;;29.65;18.17;;;;;;;2.61;96.54;103511.41;5304067;28;20044;-73
2022/01/14 10:01:11;;;;;;;27.40;20.38;;;;;;;2.51;97.37;103506.09;5305052;28;20467;-72
2022/01/14 10:03:53;;;;;;;23.27;19.02;;;;;;;2.49;98.08;103521.84;5303775;28;20024;-73
2022/01/14 10:06:46;;;;;;;52.70;20.23;;;;;;;2.48;97.75;103516.50;5302128;28;20031;-73
2022/01/14 10:09:21;;;;;;;27.67;18.50;;;;;;;2.48;98.18;103522.00;5305718;28;20030;-76
2022/01/14 10:12:07;;;;;;;23.10;17.48;;;;;;;2.53;98.71;103517.75;5304617;28;20024;-75
2022/01/14 10:14:52;;;;;;;28.55;17.95;;;;;;;2.58;99.41;103523.56;5304595;28;20122;-73
2022/01/14 10:17:25;;;;;;;26.23;18.92;;;;;;;2.63;98.74;103527.66;5303769;28;20396;-72
2022/01/14 10:19:57;;;;;;;30.80;18.83;;;;;;;2.75;98.56;103523.53;5288450;28;20020;-73
2022/01/14 10:22:31;;;;;;;35.88;22.23;;;;;;;2.80;98.07;103532.97;5304478;28;20012;-73
2022/01/14 10:25:08;;;;;;;31.40;21.98;;;;;;;2.82;97.63;103541.03;5290823;28;20157;-73
2022/01/14 10:27:41;;;;;;;24.75;19.75;;;;;;;2.86;97.63;103539.63;5302367;28;20455;-73
2022/01/14 10:30:31;;;;;;;28.25;20.85;;;;;;;2.89;97.12;103525.59;5303094;28;20038;-73
2022/01/14 10:33:08;;;;;;;26.15;19.25;;;;;;;2.97;97.09;103522.84;5303929;28;20024;-73
2022/01/14 10:35:42;;;;;;;29.98;20.90;;;;;;;3.02;97.32;103520.44;5295300;28;20020;-78
2022/01/14 10:38:19;;;;;;;22.25;18.38;;;;;;;3.08;96.93;103523.50;5303972;28;20472;-78
2022/01/14 10:40:53;;;;;;;26.27;19.20;;;;;;;3.17;97.76;103527.94;5304226;28;20020;-76
2022/01/14 10:43:32;;;;;;;31.13;21.77;;;;;;;3.35;98.53;103514.00;5303777;28;20034;-82
2022/01/14 10:46:09;;;;;;;28.27;17.95;;;;;;;3.25;97.40;103511.47;5286465;28;20016;-73
2022/01/14 10:48:43;;;;;;;27.45;18.45;;;;;;;3.38;96.41;103503.53;5296068;28;20185;-68
2022/01/14 10:51:17;;;;;;;30.33;19.48;;;;;;;3.31;95.62;103504.44;5304662;28;20028;-68
2022/01/14 10:53:51;;;;;;;25.70;19.77;;;;;;;3.21;95.82;103508.22;5296552;28;20012;-68
2022/01/14 10:56:27;;;;;;;28.73;19.48;;;;;;;3.32;96.65;103506.13;5301163;28;20027;-71
2022/01/14 10:58:59;;;;;;;24.40;20.15;;;;;;;3.29;96.66;103510.06;5304778;28;20036;-71
2022/01/14 11:01:31;;;;;;;24.02;20.13;;;;;;;3.34;96.38;103499.44;5303323;28;20028;-71
2022/01/14 11:04:11;;;;;;;27.75;19.55;;;;;;;3.35;96.46;103503.91;5297361;28;20020;-70
2022/01/14 11:06:42;;;;;;;23.33;18.58;;;;;;;3.43;96.24;103498.38;5303080;28;20035;-70
2022/01/14 11:09:17;;;;;;;23.77;18.23;;;;;;;3.48;96.44;103487.72;5304608;28;20363;-73
2022/01/14 11:11:50;;;;;;;23.70;18.67;;;;;;;3.57;96.10;103491.28;5287233;28;20031;-71
2022/01/14 11:14:22;;;;;;;26.98;19.65;;;;;;;3.56;95.55;103489.59;5295324;28;20038;-72
2022/01/14 11:16:53;;;;;;;23.67;19.10;;;;;;;3.55;95.16;103487.00;5298427;28;20020;-70
2022/01/14 11:19:28;;;;;;;25.17;19.77;;;;;;;3.46;95.72;103495.28;5303821;28;20467;-70
2022/01/14 11:24:49;;;;;;;26.42;18.83;;;;;;;3.56;96.10;103483.25;5303067;28;20074;-71
2022/01/14 11:27:22;;;;;;;21.88;17.85;;;;;;;3.53;96.10;103483.56;5303362;28;20067;-71
2022/01/14 11:29:58;;;;;;;23.88;17.38;;;;;;;3.72;96.28;103482.31;5293637;28;20058;-70
2022/01/14 11:32:56;;;;;;;26.42;20.60;;;;;;;3.77;95.95;103488.97;5302644;28;20100;-70
2022/01/14 11:35:29;;;;;;;24.35;19.63;;;;;;;3.73;95.75;103484.84;5302275;28;20019;-71
2022/01/14 11:38:01;;;;;;;26.17;19.27;;;;;;;3.69;95.90;103491.75;5299374;28;20041;-70
2022/01/14 11:40:51;;;;;;;24.33;19.73;;;;;;;3.83;96.06;103488.22;5302735;28;20027;-70
2022/01/14 11:43:41;;;;;;;25.40;20.25;;;;;;;3.77;95.77;103490.84;5296096;28;20052;-70
2022/01/14 11:46:16;;;;;;;26.00;19.92;;;;;;;3.67;96.25;103496.56;5298136;28;20517;-71
2022/01/14 11:48:50;;;;;;;25.08;19.73;;;;;;;3.63;95.97;103493.31;5296291;28;20036;-71
2022/01/14 11:51:21;;;;;;;25.23;20.38;;;;;;;3.61;96.34;103492.66;5302708;28;20103;-69
2022/01/14 11:54:06;;;;;;;27.33;21.52;;;;;;;3.81;96.41;103479.34;5302736;28;20447;-69
2022/01/14 11:56:38;;;;;;;24.40;18.15;;;;;;;3.76;96.39;103480.88;5299017;28;20103;-70
2022/01/14 11:59:18;;;;;;;24.30;19.58;;;;;;;3.92;96.32;103483.56;5302129;28;20515;-69
2022/01/14 12:01:51;;;;;;;24.55;19.27;;;;;;;3.86;95.75;103479.66;5302550;28;20433;-69
2022/01/14 12:05:01;;;;;;;26.80;21.55;;;;;;;3.98;95.67;103476.47;5301487;28;20044;-70
2022/01/14 12:08:05;;;;;;;26.35;19.98;;;;;;;3.99;96.08;103472.69;5299005;28;20467;-71
2022/01/14 12:10:47;;;;;;;27.45;20.27;;;;;;;3.87;95.76;103467.63;5297021;28;20479;-73
2022/01/14 12:19:03;;;;;;;24.40;18.05;;;;;;;4.03;95.43;103452.06;5300704;28;20461;-71
2022/01/14 12:21:37;;;;;;;30.13;21.70;;;;;;;4.04;96.02;103449.16;5300061;28;20115;-71
2022/01/14 12:24:15;;;;;;;34.25;24.50;;;;;;;4.08;95.89;103453.22;5295823;28;20114;-72
2022/01/14 12:26:52;;;;;;;31.08;22.35;;;;;;;3.96;95.51;103451.94;5295537;28;20028;-70
2022/01/14 12:29:35;;;;;;;28.90;22.50;;;;;;;4.02;96.21;103451.22;5302507;28;20059;-70
2022/01/14 12:32:28;;;;;;;31.10;21.92;;;;;;;4.08;96.16;103450.47;5302030;28;20109;-71
2022/01/14 12:35:03;;;;;;;30.15;24.10;;;;;;;4.07;95.91;103446.03;5295288;28;20028;-72
2022/01/14 12:37:41;;;;;;;30.48;23.38;;;;;;;4.17;96.40;103442.19;5301292;28;20152;-71
2022/01/14 12:40:36;;;;;;;30.38;23.58;;;;;;;4.22;95.98;103443.38;5288039;28;20021;-72
2022/01/14 12:43:13;;;;;;;32.95;24.23;;;;;;;4.19;95.85;103443.72;5303210;28;20024;-70
2022/01/14 12:45:59;;;;;;;36.92;29.38;;;;;;;4.15;96.34;103442.38;5302841;28;20483;-72
2022/01/14 12:51:14;;;;;;;29.73;23.05;;;;;;;4.16;96.33;103435.84;5306357;28;20040;-74
2022/01/14 12:53:58;;;;;;;28.20;22.65;;;;;;;4.19;96.38;103435.47;5305346;28;20111;-71
2022/01/14 12:56:35;;;;;;;32.08;24.88;;;;;;;4.12;96.26;103435.38;5306648;28;20120;-71
2022/01/14 12:59:13;;;;;;;30.42;22.58;;;;;;;4.17;96.69;103436.69;5305810;28;20074;-70
2022/01/14 13:01:50;;;;;;;31.90;25.17;;;;;;;4.27;96.55;103438.16;5302183;28;20055;-72
2022/01/14 13:04:24;;;;;;;26.02;21.75;;;;;;;4.25;96.10;103434.75;5298636;28;20022;-72
2022/01/14 13:06:57;;;;;;;26.38;21.52;;;;;;;4.18;96.10;103433.78;5304626;28;20093;-71
2022/01/14 13:09:31;;;;;;;26.08;21.20;;;;;;;4.14;96.09;103421.44;5305310;28;20479;-71
2022/01/14 13:12:08;;;;;;;26.02;22.42;;;;;;;4.21;96.61;103422.41;5302392;28;20020;-71
2022/01/14 13:14:47;;;;;;;27.70;21.60;;;;;;;4.23;96.94;103419.50;5303258;28;20020;-71
2022/01/14 13:17:26;;;;;;;35.55;25.17;;;;;;;4.16;96.76;103419.34;5291055;28;20029;-71
2022/01/14 13:20:01;;;;;;;30.38;23.60;;;;;;;4.24;96.59;103418.44;5302311;28;20433;-71
2022/01/14 13:22:33;;;;;;;28.23;22.75;;;;;;;4.28;96.68;103412.41;5305027;28;20025;-72
2022/01/14 13:25:09;;;;;;;26.92;23.17;;;;;;;4.26;96.59;103422.72;5304676;28;20040;-71
2022/01/14 13:27:44;;;;;;;29.10;22.25;;;;;;;4.38;96.88;103409.41;5304561;28;20044;-70
2022/01/14 13:30:31;;;;;;;36.00;28.33;;;;;;;4.44;97.00;103410.53;5305352;28;20028;-80
2022/01/14 13:33:09;;;;;;;33.70;24.75;;;;;;;4.54;97.08;103408.38;5306039;28;20028;-72
2022/01/14 13:35:46;;;;;;;30.15;23.27;;;;;;;4.49;96.60;103410.84;5304924;28;20035;-70
2022/01/14 13:38:19;;;;;;;29.38;23.73;;;;;;;4.55;96.37;103402.72;5306149;28;20028;-71
2022/01/14 13:40:53;;;;;;;28.83;24.02;;;;;;;4.61;96.10;103401.09;5305247;28;20093;-70
2022/01/14 13:43:35;;;;;;;28.77;23.98;;;;;;;4.63;96.34;103403.63;5305574;28;20107;-70
2022/01/14 13:46:18;;;;;;;30.98;23.67;;;;;;;4.60;96.30;103404.88;5299460;28;20036;-71
2022/01/14 13:48:53;;;;;;;32.80;25.25;;;;;;;4.64;96.14;103406.22;5296064;28;20073;-70
2022/01/14 13:51:28;;;;;;;28.20;23.52;;;;;;;4.53;96.44;103404.78;5305041;28;20024;-71
2022/01/14 13:54:03;;;;;;;30.50;23.58;;;;;;;4.58;96.26;103413.31;5305136;28;20024;-73
2022/01/14 13:56:36;;;;;;;27.17;20.00;;;;;;;4.93;97.86;103407.28;5303998;28;20035;-75
2022/01/14 13:59:08;;;;;;;30.17;24.80;;;;;;;4.70;96.74;103401.84;5304029;28;20067;-75
2022/01/14 14:01:49;;;;;;;48.28;35.10;;;;;;;4.69;96.65;103398.25;5304090;28;20109;-74
2022/01/14 14:04:30;;;;;;;35.20;27.63;;;;;;;4.62;96.86;103401.94;5304258;28;20352;-74
2022/01/14 14:07:15;;;;;;;33.80;27.05;;;;;;;4.61;96.89;103392.00;5304716;28;20364;-74
2022/01/14 14:10:09;;;;;;;34.58;26.42;;;;;;;4.70;97.03;103394.44;5303114;28;20495;-74
2022/01/14 14:12:48;;;;;;;30.02;23.77;;;;;;;4.73;97.03;103394.09;5304742;28;20024;-78
2022/01/14 14:15:44;;;;;;;24.10;19.77;;;;;;;5.18;98.79;103399.59;5305352;28;20020;-74
2022/01/14 14:18:16;;;;;;;31.40;24.27;;;;;;;5.29;100.00;103389.97;5303899;28;20082;-75
2022/01/14 14:20:49;;;;;;;44.15;31.85;;;;;;;5.01;97.53;103387.91;5303636;28;20044;-74
2022/01/14 14:23:25;;;;;;;29.42;23.77;;;;;;;4.95;96.58;103396.94;5291227;28;20062;-72
2022/01/14 14:26:00;;;;;;;29.20;24.80;;;;;;;5.00;96.55;103383.47;5287922;28;20052;-72
2022/01/14 14:28:31;;;;;;;31.27;25.20;;;;;;;4.96;96.13;103388.50;5295284;28;20017;-74
2022/01/14 14:31:03;;;;;;;30.55;23.92;;;;;;;4.98;96.17;103385.56;5296378;28;20377;-74
2022/01/14 14:33:35;;;;;;;32.60;25.65;;;;;;;4.96;96.42;103380.25;5298167;28;20016;-73
2022/01/14 14:36:06;;;;;;;33.08;25.08;;;;;;;4.93;95.82;103371.53;5305122;28;20020;-74
2022/01/14 14:38:37;;;;;;;30.98;24.10;;;;;;;4.96;96.02;103373.88;5293995;28;20063;-76
2022/01/14 14:41:09;;;;;;;30.92;25.05;;;;;;;5.01;95.60;103366.78;5297855;28;20032;-75
2022/01/14 14:43:40;;;;;;;33.95;24.80;;;;;;;4.98;95.43;103369.06;5304569;28;20023;-73
2022/01/14 14:46:11;;;;;;;33.38;25.98;;;;;;;4.97;95.62;103370.09;5300011;28;20035;-73
2022/01/14 14:48:46;;;;;;;35.80;26.90;;;;;;;5.00;95.81;103367.81;5303754;28;20509;-82
2022/01/14 14:51:18;;;;;;;26.73;21.35;;;;;;;5.61;99.42;103367.50;5304555;28;20021;-77
2022/01/14 14:53:49;;;;;;;29.58;24.27;;;;;;;5.66;99.39;103372.44;5290884;28;20143;-77
2022/01/14 14:56:20;;;;;;;29.27;24.60;;;;;;;5.85;99.02;103365.41;5303859;28;20024;-78
2022/01/14 14:58:52;;;;;;;32.67;26.35;;;;;;;5.39;95.48;103374.03;5303206;28;20071;-77
2022/01/14 15:01:24;;;;;;;34.97;28.08;;;;;;;5.39;95.10;103372.16;5303631;28;20024;-78
2022/01/14 15:03:57;;;;;;;34.58;27.38;;;;;;;5.32;94.44;103370.34;5295889;28;20084;-74
2022/01/14 15:06:29;;;;;;;40.13;31.95;;;;;;;5.32;94.13;103370.34;5302676;28;20020;-74
2022/01/14 15:09:02;;;;;;;38.35;33.67;;;;;;;5.29;94.29;103368.84;5304430;28;20039;-72
2022/01/14 15:11:34;;;;;;;38.20;29.10;;;;;;;5.26;94.22;103376.63;5303633;28;20031;-73
2022/01/14 15:14:05;;;;;;;54.35;43.17;;;;;;;5.16;94.36;103376.91;5302385;28;20388;-72
2022/01/14 15:17:08;;;;;;;50.35;40.70;;;;;;;5.14;95.81;103384.50;5303154;28;20031;-73
2022/01/14 15:19:32;;;;;;;33.63;28.10;;;;;;;5.08;95.99;103380.63;5303342;28;20032;-73
2022/01/14 15:22:05;;;;;;;35.08;27.13;;;;;;;5.05;95.80;103381.00;5284917;28;20124;-73
2022/01/14 15:24:37;;;;;;;38.50;28.55;;;;;;;5.00;95.66;103381.56;5303260;28;20593;-73
2022/01/14 15:27:10;;;;;;;38.92;31.15;;;;;;;5.11;96.25;103387.63;5303208;28;20122;-73
2022/01/14 15:29:42;;;;;;;37.25;27.88;;;;;;;5.13;96.70;103389.16;5286852;28;20024;-74
2022/01/14 15:32:13;;;;;;;41.88;31.23;;;;;;;5.06;96.25;103382.69;5296337;28;20041;-75
2022/01/14 15:34:45;;;;;;;38.38;30.42;;;;;;;5.06;96.61;103387.34;5293565;28;20085;-73
2022/01/14 15:37:16;;;;;;;34.28;27.73;;;;;;;5.12;96.66;103383.84;5302851;28;20050;-79
2022/01/14 15:39:47;;;;;;;40.42;28.50;;;;;;;5.17;96.53;103381.38;5303523;28;20055;-78
2022/01/14 15:42:19;;;;;;;36.10;27.83;;;;;;;5.13;95.42;103372.66;5302406;28;20020;-73
2022/01/14 15:44:50;;;;;;;35.00;29.10;;;;;;;5.21;95.62;103379.94;5303701;28;20056;-71
2022/01/14 15:47:22;;;;;;;37.38;28.58;;;;;;;5.15;95.20;103375.22;5300292;28;20024;-71
2022/01/14 15:49:53;;;;;;;37.00;29.00;;;;;;;5.22;95.23;103370.66;5297068;28;20021;-72
2022/01/14 15:52:25;;;;;;;52.00;41.85;;;;;;;5.20;95.35;103381.00;5303275;28;20024;-71
2022/01/14 15:54:58;;;;;;;36.45;28.40;;;;;;;5.15;95.38;103376.06;5301894;28;20106;-71
2022/01/14 15:57:29;;;;;;;33.47;28.65;;;;;;;5.26;95.40;103373.88;5303176;28;20040;-70
2022/01/14 16:00:04;;;;;;;38.45;31.10;;;;;;;5.17;94.97;103375.88;5302481;28;20031;-72
2022/01/14 16:02:35;;;;;;;39.03;29.92;;;;;;;5.11;94.79;103376.63;5302594;28;20055;-71
2022/01/14 16:05:07;;;;;;;37.55;28.48;;;;;;;5.26;96.27;103379.38;5303643;28;20055;-76
2022/01/14 16:07:39;;;;;;;37.65;30.92;;;;;;;5.39;97.04;103376.78;5302345;28;20043;-70
2022/01/14 16:10:13;;;;;;;41.30;29.77;;;;;;;5.38;95.42;103386.09;5295953;28;20020;-74
2022/01/14 16:12:49;;;;;;;37.03;30.40;;;;;;;5.39;94.75;103377.66;5285979;28;20033;-72
2022/01/14 16:15:21;;;;;;;42.53;35.35;;;;;;;5.37;94.59;103379.75;5298383;28;20361;-72
2022/01/14 16:17:53;;;;;;;44.80;36.22;;;;;;;5.30;94.38;103369.69;5285496;28;20043;-72
2022/01/14 16:20:25;;;;;;;41.53;31.50;;;;;;;5.31;94.04;103379.63;5298547;28;20020;-72
2022/01/14 16:22:56;;;;;;;39.97;31.58;;;;;;;5.19;94.33;103371.91;5299140;28;20097;-72
2022/01/14 16:25:28;;;;;;;39.83;31.70;;;;;;;5.30;94.21;103375.19;5305978;28;20066;-72
2022/01/14 16:28:00;;;;;;;37.40;29.85;;;;;;;5.21;94.31;103368.94;5291666;28;20383;-74
2022/01/14 16:30:31;;;;;;;42.28;31.95;;;;;;;5.23;94.19;103367.69;5305747;28;20024;-75
2022/01/14 16:33:02;;;;;;;40.70;31.80;;;;;;;5.28;94.39;103360.78;5303886;28;20383;-75
2022/01/14 16:35:34;;;;;;;42.50;33.83;;;;;;;5.23;94.78;103364.94;5290512;28;20017;-74
2022/01/14 16:38:05;;;;;;;40.90;32.03;;;;;;;5.32;94.55;103373.13;5300167;28;20017;-70
2022/01/14 16:40:36;;;;;;;38.67;32.35;;;;;;;5.26;94.42;103366.44;5297929;28;20020;-69
2022/01/14 16:43:08;;;;;;;487.67;377.55;;;;;;;5.23;94.43;103364.94;5303058;28;20039;-73
2022/01/14 16:45:40;;;;;;;72.40;52.90;;;;;;;5.24;94.87;103374.06;5302530;28;20027;-74
2022/01/14 16:48:12;;;;;;;41.60;33.00;;;;;;;5.21;94.25;103364.28;5306916;28;20028;-73
2022/01/14 16:50:43;;;;;;;41.25;34.05;;;;;;;5.31;93.89;103366.72;5306998;28;20026;-73
2022/01/14 16:53:15;;;;;;;44.08;34.63;;;;;;;5.25;94.00;103363.91;5304955;28;20391;-74
2022/01/14 16:55:46;;;;;;;79.60;67.53;;;;;;;5.23;93.91;103367.69;5305603;28;20067;-74
2022/01/14 16:58:18;;;;;;;50.88;39.33;;;;;;;5.26;94.15;103371.09;5304275;28;20090;-77
2022/01/14 17:00:50;;;;;;;46.03;34.97;;;;;;;5.32;94.15;103364.84;5306449;28;20031;-75
2022/01/14 17:03:22;;;;;;;48.97;35.60;;;;;;;5.27;93.80;103362.69;5304110;28;20024;-75
2022/01/14 17:05:53;;;;;;;50.50;39.00;;;;;;;5.25;93.41;103363.91;5302762;28;20036;-75
2022/01/14 17:08:25;;;;;;;59.85;38.17;;;;;;;5.31;93.27;103363.13;5305203;28;20024;-75
2022/01/14 17:10:56;;;;;;;51.33;36.70;;;;;;;5.28;92.82;103363.53;5306622;28;20107;-75
2022/01/14 17:13:31;;;;;;;50.45;38.10;;;;;;;5.32;92.80;103362.09;5291830;28;20032;-73
2022/01/14 17:16:02;;;;;;;46.05;34.50;;;;;;;5.28;92.17;103363.53;5306547;28;20024;-73
2022/01/14 17:18:33;;;;;;;43.47;34.83;;;;;;;5.32;92.00;103365.69;5305569;28;20043;-74
2022/01/14 17:21:05;;;;;;;44.28;33.17;;;;;;;5.31;91.52;103358.47;5304939;28;20024;-74
2022/01/14 17:23:37;;;;;;;52.25;35.78;;;;;;;5.36;91.51;103363.41;5300629;28;20020;-74
2022/01/14 17:26:11;;;;;;;48.75;34.90;;;;;;;5.38;91.65;103358.56;5306412;28;20463;-74
2022/01/14 17:28:43;;;;;;;52.22;39.75;;;;;;;5.38;91.22;103359.41;5305657;28;20483;-74
